sensor_id;sensor_type;location;lat;lon;timestamp;P1;durP1;ratioP1;P2;durP2;ratioP2
80983;SDS011;73733;53.046;8.724;2023-10-31T00:00:03;2.03;;;1.37;;
80983;SDS011;73733;53.046;8.724;2023-10-31T00:02:28;2.92;;;1.63;;
80983;SDS011;73733;53.046;8.724;2023-10-31T00:04:54;2.43;;;1.20;;
80983;SDS011;73733;53.046;8.724;2023-10-31T00:07:19;2.47;;;1.43;;
80983;SDS011;73733;53.046;8.724;2023-10-31T00:09:44;3.57;;;1.50;;
80983;SDS011;73733;53.046;8.724;2023-10-31T00:12:10;2.90;;;1.50;;
80983;SDS011;73733;53.046;8.724;2023-10-31T00:14:35;3.60;;;1.67;;
80983;SDS011;73733;53.046;8.724;2023-10-31T00:17:00;3.37;;;2.00;;
80983;SDS011;73733;53.046;8.724;2023-10-31T00:19:25;3.93;;;2.00;;
80983;SDS011;73733;53.046;8.724;2023-10-31T00:21:51;3.55;;;2.03;;
80983;SDS011;73733;53.046;8.724;2023-10-31T00:24:18;4.43;;;2.10;;
80983;SDS011;73733;53.046;8.724;2023-10-31T00:26:44;2.50;;;1.45;;
80983;SDS011;73733;53.046;8.724;2023-10-31T00:29:09;4.70;;;1.93;;
80983;SDS011;73733;53.046;8.724;2023-10-31T00:31:35;5.47;;;2.13;;
80983;SDS011;73733;53.046;8.724;2023-10-31T00:34:00;3.53;;;2.10;;
80983;SDS011;73733;53.046;8.724;2023-10-31T00:36:26;2.65;;;1.73;;
80983;SDS011;73733;53.046;8.724;2023-10-31T00:38:52;2.85;;;1.65;;
80983;SDS011;73733;53.046;8.724;2023-10-31T00:41:17;4.30;;;2.30;;
80983;SDS011;73733;53.046;8.724;2023-10-31T00:43:42;3.25;;;1.92;;
80983;SDS011;73733;53.046;8.724;2023-10-31T00:46:08;2.60;;;1.50;;
80983;SDS011;73733;53.046;8.724;2023-10-31T00:48:33;2.13;;;1.50;;
80983;SDS011;73733;53.046;8.724;2023-10-31T00:51:03;2.90;;;2.15;;
80983;SDS011;73733;53.046;8.724;2023-10-31T00:53:28;2.60;;;1.85;;
80983;SDS011;73733;53.046;8.724;2023-10-31T00:55:54;3.10;;;1.67;;
80983;SDS011;73733;53.046;8.724;2023-10-31T00:58:19;1.83;;;1.43;;
80983;SDS011;73733;53.046;8.724;2023-10-31T01:00:44;2.23;;;1.53;;
80983;SDS011;73733;53.046;8.724;2023-10-31T01:03:10;2.13;;;1.33;;
80983;SDS011;73733;53.046;8.724;2023-10-31T01:05:35;2.00;;;1.40;;
80983;SDS011;73733;53.046;8.724;2023-10-31T01:08:00;2.10;;;1.47;;
80983;SDS011;73733;53.046;8.724;2023-10-31T01:10:26;2.27;;;1.60;;
80983;SDS011;73733;53.046;8.724;2023-10-31T01:12:51;2.10;;;1.47;;
80983;SDS011;73733;53.046;8.724;2023-10-31T01:15:16;2.60;;;2.00;;
80983;SDS011;73733;53.046;8.724;2023-10-31T01:17:42;2.47;;;1.65;;
80983;SDS011;73733;53.046;8.724;2023-10-31T01:20:07;2.13;;;1.53;;
80983;SDS011;73733;53.046;8.724;2023-10-31T01:22:34;2.05;;;1.27;;
80983;SDS011;73733;53.046;8.724;2023-10-31T01:24:59;1.90;;;1.23;;
80983;SDS011;73733;53.046;8.724;2023-10-31T01:27:25;2.38;;;1.52;;
80983;SDS011;73733;53.046;8.724;2023-10-31T01:29:50;1.70;;;1.27;;
80983;SDS011;73733;53.046;8.724;2023-10-31T01:32:15;1.67;;;1.27;;
80983;SDS011;73733;53.046;8.724;2023-10-31T01:34:40;1.67;;;1.13;;
80983;SDS011;73733;53.046;8.724;2023-10-31T01:37:06;1.73;;;1.30;;
80983;SDS011;73733;53.046;8.724;2023-10-31T01:39:31;1.87;;;1.10;;
80983;SDS011;73733;53.046;8.724;2023-10-31T01:41:56;1.83;;;1.30;;
80983;SDS011;73733;53.046;8.724;2023-10-31T01:44:22;1.73;;;1.47;;
80983;SDS011;73733;53.046;8.724;2023-10-31T01:46:47;4.03;;;1.33;;
80983;SDS011;73733;53.046;8.724;2023-10-31T01:49:12;1.73;;;1.20;;
80983;SDS011;73733;53.046;8.724;2023-10-31T01:51:39;2.45;;;1.58;;
80983;SDS011;73733;53.046;8.724;2023-10-31T01:54:08;1.58;;;1.30;;
80983;SDS011;73733;53.046;8.724;2023-10-31T01:56:35;1.50;;;1.20;;
80983;SDS011;73733;53.046;8.724;2023-10-31T01:59:00;1.98;;;1.27;;
80983;SDS011;73733;53.046;8.724;2023-10-31T02:01:26;1.92;;;1.40;;
80983;SDS011;73733;53.046;8.724;2023-10-31T02:03:52;2.03;;;1.40;;
80983;SDS011;73733;53.046;8.724;2023-10-31T02:06:18;1.48;;;0.98;;
80983;SDS011;73733;53.046;8.724;2023-10-31T02:08:43;1.30;;;1.10;;
80983;SDS011;73733;53.046;8.724;2023-10-31T02:11:09;1.37;;;1.07;;
80983;SDS011;73733;53.046;8.724;2023-10-31T02:13:35;2.35;;;1.35;;
80983;SDS011;73733;53.046;8.724;2023-10-31T02:16:00;1.52;;;0.90;;
80983;SDS011;73733;53.046;8.724;2023-10-31T02:18:26;1.75;;;1.15;;
80983;SDS011;73733;53.046;8.724;2023-10-31T02:20:52;1.67;;;1.05;;
80983;SDS011;73733;53.046;8.724;2023-10-31T02:23:17;1.37;;;1.10;;
80983;SDS011;73733;53.046;8.724;2023-10-31T02:25:42;2.40;;;1.33;;
80983;SDS011;73733;53.046;8.724;2023-10-31T02:28:08;1.60;;;1.20;;
80983;SDS011;73733;53.046;8.724;2023-10-31T02:30:33;1.83;;;1.33;;
80983;SDS011;73733;53.046;8.724;2023-10-31T02:33:00;1.90;;;1.50;;
80983;SDS011;73733;53.046;8.724;2023-10-31T02:35:26;2.38;;;1.52;;
80983;SDS011;73733;53.046;8.724;2023-10-31T02:37:51;2.10;;;1.60;;
80983;SDS011;73733;53.046;8.724;2023-10-31T02:40:17;2.47;;;1.70;;
80983;SDS011;73733;53.046;8.724;2023-10-31T02:42:42;2.03;;;1.40;;
80983;SDS011;73733;53.046;8.724;2023-10-31T02:45:07;2.90;;;1.80;;
80983;SDS011;73733;53.046;8.724;2023-10-31T02:47:33;2.45;;;1.60;;
80983;SDS011;73733;53.046;8.724;2023-10-31T02:49:58;3.97;;;1.60;;
80983;SDS011;73733;53.046;8.724;2023-10-31T02:52:24;2.70;;;1.73;;
80983;SDS011;73733;53.046;8.724;2023-10-31T02:54:49;2.50;;;1.67;;
80983;SDS011;73733;53.046;8.724;2023-10-31T02:57:15;2.60;;;1.70;;
80983;SDS011;73733;53.046;8.724;2023-10-31T02:59:41;2.85;;;2.00;;
80983;SDS011;73733;53.046;8.724;2023-10-31T03:02:06;3.10;;;2.20;;
80983;SDS011;73733;53.046;8.724;2023-10-31T03:04:31;2.70;;;1.83;;
80983;SDS011;73733;53.046;8.724;2023-10-31T03:06:57;3.00;;;1.80;;
80983;SDS011;73733;53.046;8.724;2023-10-31T03:09:22;2.90;;;2.00;;
80983;SDS011;73733;53.046;8.724;2023-10-31T03:11:47;2.60;;;1.80;;
80983;SDS011;73733;53.046;8.724;2023-10-31T03:14:13;5.63;;;2.80;;
80983;SDS011;73733;53.046;8.724;2023-10-31T03:16:38;3.73;;;2.47;;
80983;SDS011;73733;53.046;8.724;2023-10-31T03:19:04;3.00;;;1.90;;
80983;SDS011;73733;53.046;8.724;2023-10-31T03:21:29;3.20;;;2.50;;
80983;SDS011;73733;53.046;8.724;2023-10-31T03:23:55;3.17;;;2.30;;
80983;SDS011;73733;53.046;8.724;2023-10-31T03:26:23;3.08;;;2.03;;
80983;SDS011;73733;53.046;8.724;2023-10-31T03:28:48;3.03;;;2.08;;
80983;SDS011;73733;53.046;8.724;2023-10-31T03:31:14;3.00;;;2.17;;
80983;SDS011;73733;53.046;8.724;2023-10-31T03:33:39;3.30;;;2.20;;
80983;SDS011;73733;53.046;8.724;2023-10-31T03:36:05;3.88;;;2.33;;
80983;SDS011;73733;53.046;8.724;2023-10-31T03:38:31;2.72;;;1.58;;
80983;SDS011;73733;53.046;8.724;2023-10-31T03:40:56;3.10;;;1.90;;
80983;SDS011;73733;53.046;8.724;2023-10-31T03:43:22;3.67;;;2.60;;
80983;SDS011;73733;53.046;8.724;2023-10-31T03:45:47;3.05;;;2.15;;
80983;SDS011;73733;53.046;8.724;2023-10-31T03:48:13;4.45;;;2.25;;
80983;SDS011;73733;53.046;8.724;2023-10-31T03:50:38;3.28;;;2.55;;
80983;SDS011;73733;53.046;8.724;2023-10-31T03:53:03;3.27;;;2.10;;
80983;SDS011;73733;53.046;8.724;2023-10-31T03:55:29;3.33;;;2.43;;
80983;SDS011;73733;53.046;8.724;2023-10-31T03:57:55;4.38;;;2.70;;
80983;SDS011;73733;53.046;8.724;2023-10-31T04:00:20;3.50;;;1.98;;
80983;SDS011;73733;53.046;8.724;2023-10-31T04:02:46;3.00;;;1.80;;
80983;SDS011;73733;53.046;8.724;2023-10-31T04:05:11;2.73;;;1.63;;
80983;SDS011;73733;53.046;8.724;2023-10-31T04:07:36;3.27;;;2.80;;
80983;SDS011;73733;53.046;8.724;2023-10-31T04:10:03;3.25;;;2.10;;
80983;SDS011;73733;53.046;8.724;2023-10-31T04:12:28;2.90;;;1.92;;
80983;SDS011;73733;53.046;8.724;2023-10-31T04:14:53;3.47;;;2.20;;
80983;SDS011;73733;53.046;8.724;2023-10-31T04:17:19;3.03;;;1.87;;
80983;SDS011;73733;53.046;8.724;2023-10-31T04:19:44;3.33;;;2.00;;
80983;SDS011;73733;53.046;8.724;2023-10-31T04:22:09;3.60;;;2.47;;
80983;SDS011;73733;53.046;8.724;2023-10-31T04:24:35;2.43;;;1.77;;
80983;SDS011;73733;53.046;8.724;2023-10-31T04:27:00;3.00;;;2.10;;
80983;SDS011;73733;53.046;8.724;2023-10-31T04:29:25;3.63;;;2.47;;
80983;SDS011;73733;53.046;8.724;2023-10-31T04:31:50;3.10;;;2.00;;
80983;SDS011;73733;53.046;8.724;2023-10-31T04:34:16;3.10;;;2.43;;
80983;SDS011;73733;53.046;8.724;2023-10-31T04:36:41;2.60;;;2.03;;
80983;SDS011;73733;53.046;8.724;2023-10-31T04:39:06;2.70;;;2.00;;
80983;SDS011;73733;53.046;8.724;2023-10-31T04:41:32;4.60;;;2.20;;
80983;SDS011;73733;53.046;8.724;2023-10-31T04:43:57;4.13;;;2.80;;
80983;SDS011;73733;53.046;8.724;2023-10-31T04:46:24;3.67;;;2.33;;
80983;SDS011;73733;53.046;8.724;2023-10-31T04:48:49;3.78;;;2.33;;
80983;SDS011;73733;53.046;8.724;2023-10-31T04:51:15;5.07;;;3.10;;
80983;SDS011;73733;53.046;8.724;2023-10-31T04:53:40;4.47;;;2.90;;
80983;SDS011;73733;53.046;8.724;2023-10-31T04:56:11;5.73;;;3.47;;
80983;SDS011;73733;53.046;8.724;2023-10-31T04:58:37;4.15;;;3.15;;
80983;SDS011;73733;53.046;8.724;2023-10-31T05:01:02;4.43;;;2.90;;
80983;SDS011;73733;53.046;8.724;2023-10-31T05:03:28;3.80;;;2.75;;
80983;SDS011;73733;53.046;8.724;2023-10-31T05:05:53;3.70;;;2.83;;
80983;SDS011;73733;53.046;8.724;2023-10-31T05:08:19;4.93;;;3.13;;
80983;SDS011;73733;53.046;8.724;2023-10-31T05:10:44;3.93;;;2.90;;
80983;SDS011;73733;53.046;8.724;2023-10-31T05:13:12;3.17;;;2.33;;
80983;SDS011;73733;53.046;8.724;2023-10-31T05:15:37;4.27;;;2.90;;
80983;SDS011;73733;53.046;8.724;2023-10-31T05:18:03;3.50;;;2.57;;
80983;SDS011;73733;53.046;8.724;2023-10-31T05:20:28;3.50;;;2.40;;
80983;SDS011;73733;53.046;8.724;2023-10-31T05:22:53;4.57;;;2.70;;
80983;SDS011;73733;53.046;8.724;2023-10-31T05:25:19;3.70;;;2.63;;
80983;SDS011;73733;53.046;8.724;2023-10-31T05:27:44;3.50;;;2.30;;
80983;SDS011;73733;53.046;8.724;2023-10-31T05:30:09;4.23;;;2.10;;
80983;SDS011;73733;53.046;8.724;2023-10-31T05:32:35;3.42;;;2.58;;
80983;SDS011;73733;53.046;8.724;2023-10-31T05:35:00;3.93;;;2.77;;
80983;SDS011;73733;53.046;8.724;2023-10-31T05:37:26;3.25;;;2.10;;
80983;SDS011;73733;53.046;8.724;2023-10-31T05:39:51;3.13;;;2.10;;
80983;SDS011;73733;53.046;8.724;2023-10-31T05:42:16;1.93;;;1.20;;
80983;SDS011;73733;53.046;8.724;2023-10-31T05:44:42;0.60;;;0.50;;
80983;SDS011;73733;53.046;8.724;2023-10-31T05:47:07;0.90;;;0.60;;
80983;SDS011;73733;53.046;8.724;2023-10-31T05:49:32;0.23;;;0.23;;
80983;SDS011;73733;53.046;8.724;2023-10-31T05:51:58;0.30;;;0.20;;
80983;SDS011;73733;53.046;8.724;2023-10-31T05:54:23;0.43;;;0.20;;
80983;SDS011;73733;53.046;8.724;2023-10-31T05:56:49;0.35;;;0.20;;
80983;SDS011;73733;53.046;8.724;2023-10-31T05:59:15;0.70;;;0.10;;
80983;SDS011;73733;53.046;8.724;2023-10-31T06:01:40;0.20;;;0.17;;
80983;SDS011;73733;53.046;8.724;2023-10-31T06:04:05;0.10;;;0.10;;
80983;SDS011;73733;53.046;8.724;2023-10-31T06:06:37;0.67;;;0.20;;
80983;SDS011;73733;53.046;8.724;2023-10-31T06:09:04;0.57;;;0.13;;
80983;SDS011;73733;53.046;8.724;2023-10-31T06:11:29;0.17;;;0.10;;
80983;SDS011;73733;53.046;8.724;2023-10-31T06:13:55;0.73;;;0.20;;
80983;SDS011;73733;53.046;8.724;2023-10-31T06:16:20;0.20;;;0.20;;
80983;SDS011;73733;53.046;8.724;2023-10-31T06:18:46;0.22;;;0.10;;
80983;SDS011;73733;53.046;8.724;2023-10-31T06:21:11;0.20;;;0.10;;
80983;SDS011;73733;53.046;8.724;2023-10-31T06:23:37;0.33;;;0.10;;
80983;SDS011;73733;53.046;8.724;2023-10-31T06:26:03;0.22;;;0.20;;
80983;SDS011;73733;53.046;8.724;2023-10-31T06:28:29;0.85;;;0.40;;
80983;SDS011;73733;53.046;8.724;2023-10-31T06:30:54;0.40;;;0.10;;
80983;SDS011;73733;53.046;8.724;2023-10-31T06:33:19;0.10;;;0.10;;
80983;SDS011;73733;53.046;8.724;2023-10-31T06:35:45;0.20;;;0.10;;
80983;SDS011;73733;53.046;8.724;2023-10-31T06:38:10;0.10;;;0.00;;
80983;SDS011;73733;53.046;8.724;2023-10-31T06:40:35;0.57;;;0.20;;
80983;SDS011;73733;53.046;8.724;2023-10-31T06:43:01;0.87;;;0.20;;
80983;SDS011;73733;53.046;8.724;2023-10-31T06:45:27;0.30;;;0.20;;
80983;SDS011;73733;53.046;8.724;2023-10-31T06:47:52;0.80;;;0.30;;
80983;SDS011;73733;53.046;8.724;2023-10-31T06:50:18;0.30;;;0.20;;
80983;SDS011;73733;53.046;8.724;2023-10-31T06:52:43;0.30;;;0.30;;
80983;SDS011;73733;53.046;8.724;2023-10-31T06:55:08;0.70;;;0.10;;
80983;SDS011;73733;53.046;8.724;2023-10-31T06:57:34;0.70;;;0.10;;
80983;SDS011;73733;53.046;8.724;2023-10-31T06:59:59;0.53;;;0.20;;
80983;SDS011;73733;53.046;8.724;2023-10-31T07:02:24;0.50;;;0.30;;
80983;SDS011;73733;53.046;8.724;2023-10-31T07:04:50;0.50;;;0.10;;
80983;SDS011;73733;53.046;8.724;2023-10-31T07:07:16;0.73;;;0.27;;
80983;SDS011;73733;53.046;8.724;2023-10-31T07:09:41;0.47;;;0.20;;
80983;SDS011;73733;53.046;8.724;2023-10-31T07:12:06;0.40;;;0.20;;
80983;SDS011;73733;53.046;8.724;2023-10-31T07:14:32;0.70;;;0.10;;
80983;SDS011;73733;53.046;8.724;2023-10-31T07:16:57;0.60;;;0.50;;
80983;SDS011;73733;53.046;8.724;2023-10-31T07:19:22;0.93;;;0.20;;
80983;SDS011;73733;53.046;8.724;2023-10-31T07:21:48;0.30;;;0.20;;
80983;SDS011;73733;53.046;8.724;2023-10-31T07:24:13;1.13;;;0.20;;
80983;SDS011;73733;53.046;8.724;2023-10-31T07:26:38;0.10;;;0.10;;
80983;SDS011;73733;53.046;8.724;2023-10-31T07:29:04;1.08;;;0.20;;
80983;SDS011;73733;53.046;8.724;2023-10-31T07:31:30;0.32;;;0.17;;
80983;SDS011;73733;53.046;8.724;2023-10-31T07:33:55;0.43;;;0.40;;
80983;SDS011;73733;53.046;8.724;2023-10-31T07:36:21;1.17;;;0.25;;
80983;SDS011;73733;53.046;8.724;2023-10-31T07:38:46;0.20;;;0.10;;
80983;SDS011;73733;53.046;8.724;2023-10-31T07:41:11;0.30;;;0.23;;
80983;SDS011;73733;53.046;8.724;2023-10-31T07:43:37;0.20;;;0.10;;
80983;SDS011;73733;53.046;8.724;2023-10-31T07:46:02;0.30;;;0.20;;
80983;SDS011;73733;53.046;8.724;2023-10-31T07:48:28;0.13;;;0.13;;
80983;SDS011;73733;53.046;8.724;2023-10-31T07:50:53;0.50;;;0.10;;
80983;SDS011;73733;53.046;8.724;2023-10-31T07:53:18;0.20;;;0.17;;
80983;SDS011;73733;53.046;8.724;2023-10-31T07:55:44;0.20;;;0.10;;
80983;SDS011;73733;53.046;8.724;2023-10-31T07:58:09;0.23;;;0.10;;
80983;SDS011;73733;53.046;8.724;2023-10-31T08:00:35;0.08;;;0.08;;
80983;SDS011;73733;53.046;8.724;2023-10-31T08:03:01;0.38;;;0.20;;
80983;SDS011;73733;53.046;8.724;2023-10-31T08:05:26;1.52;;;0.30;;
80983;SDS011;73733;53.046;8.724;2023-10-31T08:07:52;1.40;;;0.50;;
80983;SDS011;73733;53.046;8.724;2023-10-31T08:10:17;0.20;;;0.17;;
80983;SDS011;73733;53.046;8.724;2023-10-31T08:12:42;0.33;;;0.10;;
80983;SDS011;73733;53.046;8.724;2023-10-31T08:15:08;0.03;;;0.00;;
80983;SDS011;73733;53.046;8.724;2023-10-31T08:17:34;0.10;;;0.10;;
80983;SDS011;73733;53.046;8.724;2023-10-31T08:20:00;0.10;;;0.00;;
80983;SDS011;73733;53.046;8.724;2023-10-31T08:22:25;0.87;;;0.40;;
80983;SDS011;73733;53.046;8.724;2023-10-31T08:24:50;1.03;;;0.30;;
80983;SDS011;73733;53.046;8.724;2023-10-31T08:27:15;0.20;;;0.10;;
80983;SDS011;73733;53.046;8.724;2023-10-31T08:29:41;0.50;;;0.17;;
80983;SDS011;73733;53.046;8.724;2023-10-31T08:32:06;0.50;;;0.20;;
80983;SDS011;73733;53.046;8.724;2023-10-31T08:34:32;0.25;;;0.13;;
80983;SDS011;73733;53.046;8.724;2023-10-31T08:36:57;0.20;;;0.17;;
80983;SDS011;73733;53.046;8.724;2023-10-31T08:39:24;0.43;;;0.17;;
80983;SDS011;73733;53.046;8.724;2023-10-31T08:41:52;0.00;;;0.00;;
80983;SDS011;73733;53.046;8.724;2023-10-31T08:44:18;0.38;;;0.10;;
80983;SDS011;73733;53.046;8.724;2023-10-31T08:46:44;1.10;;;0.10;;
80983;SDS011;73733;53.046;8.724;2023-10-31T08:49:09;0.13;;;0.10;;
80983;SDS011;73733;53.046;8.724;2023-10-31T08:51:34;0.10;;;0.10;;
80983;SDS011;73733;53.046;8.724;2023-10-31T08:54:00;1.63;;;0.40;;
80983;SDS011;73733;53.046;8.724;2023-10-31T08:56:25;0.37;;;0.20;;
80983;SDS011;73733;53.046;8.724;2023-10-31T08:58:52;0.00;;;0.00;;
80983;SDS011;73733;53.046;8.724;2023-10-31T09:01:17;0.20;;;0.15;;
80983;SDS011;73733;53.046;8.724;2023-10-31T09:03:43;1.50;;;0.20;;
80983;SDS011;73733;53.046;8.724;2023-10-31T09:06:09;0.60;;;0.25;;
80983;SDS011;73733;53.046;8.724;2023-10-31T09:08:35;0.20;;;0.13;;
80983;SDS011;73733;53.046;8.724;2023-10-31T09:11:01;0.20;;;0.10;;
80983;SDS011;73733;53.046;8.724;2023-10-31T09:13:28;0.08;;;0.03;;
80983;SDS011;73733;53.046;8.724;2023-10-31T09:15:53;0.47;;;0.10;;
80983;SDS011;73733;53.046;8.724;2023-10-31T09:18:18;0.93;;;0.28;;
80983;SDS011;73733;53.046;8.724;2023-10-31T09:20:44;0.27;;;0.20;;
80983;SDS011;73733;53.046;8.724;2023-10-31T09:23:09;0.43;;;0.10;;
80983;SDS011;73733;53.046;8.724;2023-10-31T09:25:34;0.80;;;0.40;;
80983;SDS011;73733;53.046;8.724;2023-10-31T09:28:00;0.63;;;0.20;;
80983;SDS011;73733;53.046;8.724;2023-10-31T09:30:25;0.93;;;0.10;;
80983;SDS011;73733;53.046;8.724;2023-10-31T09:32:51;0.10;;;0.10;;
80983;SDS011;73733;53.046;8.724;2023-10-31T09:35:17;0.20;;;0.20;;
80983;SDS011;73733;53.046;8.724;2023-10-31T09:37:42;0.37;;;0.30;;
80983;SDS011;73733;53.046;8.724;2023-10-31T09:40:08;0.57;;;0.32;;
80983;SDS011;73733;53.046;8.724;2023-10-31T09:42:35;0.43;;;0.20;;
80983;SDS011;73733;53.046;8.724;2023-10-31T09:45:01;0.45;;;0.30;;
80983;SDS011;73733;53.046;8.724;2023-10-31T09:47:26;0.40;;;0.40;;
80983;SDS011;73733;53.046;8.724;2023-10-31T09:49:51;1.05;;;0.80;;
80983;SDS011;73733;53.046;8.724;2023-10-31T09:52:17;1.35;;;0.40;;
80983;SDS011;73733;53.046;8.724;2023-10-31T09:54:45;0.75;;;0.35;;
80983;SDS011;73733;53.046;8.724;2023-10-31T09:57:10;0.67;;;0.40;;
80983;SDS011;73733;53.046;8.724;2023-10-31T09:59:36;1.33;;;0.82;;
80983;SDS011;73733;53.046;8.724;2023-10-31T10:02:01;0.50;;;0.50;;
80983;SDS011;73733;53.046;8.724;2023-10-31T10:04:26;0.57;;;0.43;;
80983;SDS011;73733;53.046;8.724;2023-10-31T10:06:58;0.90;;;0.60;;
80983;SDS011;73733;53.046;8.724;2023-10-31T10:09:24;0.88;;;0.50;;
80983;SDS011;73733;53.046;8.724;2023-10-31T10:11:51;0.55;;;0.38;;
80983;SDS011;73733;53.046;8.724;2023-10-31T10:16:42;0.90;;;0.60;;
80983;SDS011;73733;53.046;8.724;2023-10-31T10:19:17;0.30;;;0.30;;
80983;SDS011;73733;53.046;8.724;2023-10-31T10:24:16;0.98;;;0.47;;
80983;SDS011;73733;53.046;8.724;2023-10-31T10:26:45;1.85;;;0.82;;
80983;SDS011;73733;53.046;8.724;2023-10-31T10:29:11;1.73;;;0.65;;
80983;SDS011;73733;53.046;8.724;2023-10-31T10:31:36;1.85;;;0.73;;
80983;SDS011;73733;53.046;8.724;2023-10-31T10:34:01;1.20;;;0.60;;
80983;SDS011;73733;53.046;8.724;2023-10-31T10:36:27;1.03;;;0.43;;
80983;SDS011;73733;53.046;8.724;2023-10-31T10:38:58;1.08;;;0.47;;
80983;SDS011;73733;53.046;8.724;2023-10-31T10:41:30;0.63;;;0.40;;
80983;SDS011;73733;53.046;8.724;2023-10-31T10:44:05;0.75;;;0.57;;
80983;SDS011;73733;53.046;8.724;2023-10-31T10:46:32;3.65;;;0.77;;
80983;SDS011;73733;53.046;8.724;2023-10-31T10:48:59;0.65;;;0.40;;
80983;SDS011;73733;53.046;8.724;2023-10-31T10:51:31;1.38;;;0.50;;
80983;SDS011;73733;53.046;8.724;2023-10-31T10:54:08;2.72;;;1.35;;
80983;SDS011;73733;53.046;8.724;2023-10-31T10:56:46;1.95;;;0.70;;
80983;SDS011;73733;53.046;8.724;2023-10-31T10:59:44;1.05;;;0.60;;
80983;SDS011;73733;53.046;8.724;2023-10-31T11:02:15;0.55;;;0.30;;
80983;SDS011;73733;53.046;8.724;2023-10-31T11:04:42;1.05;;;0.55;;
80983;SDS011;73733;53.046;8.724;2023-10-31T11:07:08;0.65;;;0.50;;
80983;SDS011;73733;53.046;8.724;2023-10-31T11:09:34;1.95;;;1.02;;
80983;SDS011;73733;53.046;8.724;2023-10-31T11:11:59;0.57;;;0.50;;
80983;SDS011;73733;53.046;8.724;2023-10-31T11:14:25;1.40;;;0.60;;
80983;SDS011;73733;53.046;8.724;2023-10-31T11:16:52;1.00;;;0.60;;
80983;SDS011;73733;53.046;8.724;2023-10-31T11:19:18;2.03;;;0.38;;
80983;SDS011;73733;53.046;8.724;2023-10-31T11:22:00;0.57;;;0.50;;
80983;SDS011;73733;53.046;8.724;2023-10-31T11:26:59;1.98;;;0.70;;
80983;SDS011;73733;53.046;8.724;2023-10-31T11:31:51;0.97;;;0.50;;
80983;SDS011;73733;53.046;8.724;2023-10-31T11:34:26;4.57;;;1.58;;
80983;SDS011;73733;53.046;8.724;2023-10-31T11:36:52;0.82;;;0.60;;
80983;SDS011;73733;53.046;8.724;2023-10-31T11:39:18;1.20;;;0.55;;
80983;SDS011;73733;53.046;8.724;2023-10-31T11:41:54;2.70;;;1.17;;
80983;SDS011;73733;53.046;8.724;2023-10-31T11:44:27;2.05;;;0.43;;
80983;SDS011;73733;53.046;8.724;2023-10-31T11:46:52;1.25;;;0.60;;
80983;SDS011;73733;53.046;8.724;2023-10-31T11:49:40;0.85;;;0.70;;
80983;SDS011;73733;53.046;8.724;2023-10-31T11:52:15;2.35;;;0.80;;
80983;SDS011;73733;53.046;8.724;2023-10-31T11:54:47;0.70;;;0.60;;
80983;SDS011;73733;53.046;8.724;2023-10-31T11:57:26;1.48;;;0.65;;
80983;SDS011;73733;53.046;8.724;2023-10-31T12:00:31;1.33;;;0.90;;
80983;SDS011;73733;53.046;8.724;2023-10-31T12:02:58;0.98;;;0.70;;
80983;SDS011;73733;53.046;8.724;2023-10-31T12:05:26;0.80;;;0.73;;
80983;SDS011;73733;53.046;8.724;2023-10-31T12:07:51;3.73;;;1.00;;
80983;SDS011;73733;53.046;8.724;2023-10-31T12:10:27;1.80;;;0.70;;
80983;SDS011;73733;53.046;8.724;2023-10-31T12:12:55;1.30;;;1.00;;
80983;SDS011;73733;53.046;8.724;2023-10-31T12:15:20;1.98;;;0.68;;
80983;SDS011;73733;53.046;8.724;2023-10-31T12:17:46;0.90;;;0.57;;
80983;SDS011;73733;53.046;8.724;2023-10-31T12:20:11;1.90;;;0.63;;
80983;SDS011;73733;53.046;8.724;2023-10-31T12:22:37;0.60;;;0.55;;
80983;SDS011;73733;53.046;8.724;2023-10-31T12:25:03;1.02;;;0.47;;
80983;SDS011;73733;53.046;8.724;2023-10-31T12:27:44;0.93;;;0.40;;
80983;SDS011;73733;53.046;8.724;2023-10-31T12:30:17;0.77;;;0.40;;
80983;SDS011;73733;53.046;8.724;2023-10-31T12:32:43;0.60;;;0.38;;
80983;SDS011;73733;53.046;8.724;2023-10-31T12:35:13;2.42;;;0.80;;
80983;SDS011;73733;53.046;8.724;2023-10-31T12:37:45;0.63;;;0.30;;
80983;SDS011;73733;53.046;8.724;2023-10-31T12:40:12;0.82;;;0.38;;
80983;SDS011;73733;53.046;8.724;2023-10-31T12:42:40;1.00;;;0.75;;
80983;SDS011;73733;53.046;8.724;2023-10-31T12:45:06;0.32;;;0.20;;
80983;SDS011;73733;53.046;8.724;2023-10-31T12:47:33;0.90;;;0.50;;
80983;SDS011;73733;53.046;8.724;2023-10-31T12:50:09;0.88;;;0.30;;
80983;SDS011;73733;53.046;8.724;2023-10-31T12:52:47;0.28;;;0.20;;
80983;SDS011;73733;53.046;8.724;2023-10-31T12:55:14;0.40;;;0.30;;
80983;SDS011;73733;53.046;8.724;2023-10-31T12:57:40;0.60;;;0.30;;
80983;SDS011;73733;53.046;8.724;2023-10-31T13:00:05;1.23;;;0.30;;
80983;SDS011;73733;53.046;8.724;2023-10-31T13:02:34;1.63;;;0.28;;
80983;SDS011;73733;53.046;8.724;2023-10-31T13:07:38;0.40;;;0.20;;
80983;SDS011;73733;53.046;8.724;2023-10-31T13:10:04;0.43;;;0.25;;
80983;SDS011;73733;53.046;8.724;2023-10-31T13:12:30;0.55;;;0.32;;
80983;SDS011;73733;53.046;8.724;2023-10-31T13:14:56;0.43;;;0.25;;
80983;SDS011;73733;53.046;8.724;2023-10-31T13:17:21;1.30;;;0.43;;
80983;SDS011;73733;53.046;8.724;2023-10-31T13:19:47;1.25;;;0.40;;
80983;SDS011;73733;53.046;8.724;2023-10-31T13:22:12;0.50;;;0.20;;
80983;SDS011;73733;53.046;8.724;2023-10-31T13:24:37;1.17;;;0.67;;
80983;SDS011;73733;53.046;8.724;2023-10-31T13:27:03;0.10;;;0.10;;
80983;SDS011;73733;53.046;8.724;2023-10-31T13:29:28;0.60;;;0.30;;
80983;SDS011;73733;53.046;8.724;2023-10-31T13:31:54;0.53;;;0.23;;
80983;SDS011;73733;53.046;8.724;2023-10-31T13:34:20;0.65;;;0.20;;
80983;SDS011;73733;53.046;8.724;2023-10-31T13:36:45;1.00;;;0.40;;
80983;SDS011;73733;53.046;8.724;2023-10-31T13:39:11;0.90;;;0.40;;
80983;SDS011;73733;53.046;8.724;2023-10-31T13:41:36;0.65;;;0.20;;
80983;SDS011;73733;53.046;8.724;2023-10-31T13:44:01;0.53;;;0.23;;
80983;SDS011;73733;53.046;8.724;2023-10-31T13:46:30;0.30;;;0.10;;
80983;SDS011;73733;53.046;8.724;2023-10-31T13:48:55;0.85;;;0.20;;
80983;SDS011;73733;53.046;8.724;2023-10-31T13:51:20;0.33;;;0.20;;
80983;SDS011;73733;53.046;8.724;2023-10-31T13:53:46;0.87;;;0.43;;
80983;SDS011;73733;53.046;8.724;2023-10-31T13:56:11;1.20;;;0.37;;
80983;SDS011;73733;53.046;8.724;2023-10-31T13:58:36;0.20;;;0.20;;
80983;SDS011;73733;53.046;8.724;2023-10-31T14:01:02;0.40;;;0.20;;
80983;SDS011;73733;53.046;8.724;2023-10-31T14:03:27;0.43;;;0.10;;
80983;SDS011;73733;53.046;8.724;2023-10-31T14:05:52;0.13;;;0.10;;
80983;SDS011;73733;53.046;8.724;2023-10-31T14:08:18;0.35;;;0.20;;
80983;SDS011;73733;53.046;8.724;2023-10-31T14:10:44;1.10;;;0.15;;
80983;SDS011;73733;53.046;8.724;2023-10-31T14:13:10;0.45;;;0.30;;
80983;SDS011;73733;53.046;8.724;2023-10-31T14:15:36;0.75;;;0.30;;
80983;SDS011;73733;53.046;8.724;2023-10-31T14:18:01;0.87;;;0.20;;
80983;SDS011;73733;53.046;8.724;2023-10-31T14:20:27;0.20;;;0.13;;
80983;SDS011;73733;53.046;8.724;2023-10-31T14:22:53;1.27;;;0.35;;
80983;SDS011;73733;53.046;8.724;2023-10-31T14:25:18;1.60;;;0.28;;
80983;SDS011;73733;53.046;8.724;2023-10-31T14:27:44;1.30;;;0.60;;
80983;SDS011;73733;53.046;8.724;2023-10-31T14:30:12;1.80;;;0.20;;
80983;SDS011;73733;53.046;8.724;2023-10-31T14:32:38;0.40;;;0.28;;
80983;SDS011;73733;53.046;8.724;2023-10-31T14:35:04;0.50;;;0.30;;
80983;SDS011;73733;53.046;8.724;2023-10-31T14:37:30;1.35;;;0.40;;
80983;SDS011;73733;53.046;8.724;2023-10-31T14:39:55;0.37;;;0.20;;
80983;SDS011;73733;53.046;8.724;2023-10-31T14:42:20;0.90;;;0.43;;
80983;SDS011;73733;53.046;8.724;2023-10-31T14:44:46;1.90;;;0.67;;
80983;SDS011;73733;53.046;8.724;2023-10-31T14:47:11;0.73;;;0.50;;
80983;SDS011;73733;53.046;8.724;2023-10-31T14:49:36;2.00;;;0.30;;
80983;SDS011;73733;53.046;8.724;2023-10-31T14:52:02;2.42;;;0.63;;
80983;SDS011;73733;53.046;8.724;2023-10-31T14:54:29;2.35;;;0.30;;